createdAt,value
2022-09-20T00:01:17.129Z,55.72
2022-09-20T00:03:45.162Z,55.80
2022-09-20T00:06:13.689Z,56.07
2022-09-20T00:08:42.483Z,56.39
2022-09-20T00:11:11.556Z,56.72
2022-09-20T00:13:39.581Z,57.26
2022-09-20T00:16:08.295Z,57.23
2022-09-20T00:18:35.877Z,57.22
2022-09-20T00:21:04.042Z,57.49
2022-09-20T00:23:32.163Z,57.52
2022-09-20T00:26:03.124Z,57.11
2022-09-20T00:28:31.434Z,57.53
2022-09-20T00:30:58.273Z,57.78
2022-09-20T00:33:45.603Z,57.56
2022-09-20T00:36:12.537Z,57.81
2022-09-20T00:38:39.323Z,57.89
2022-09-20T00:41:08.668Z,58.09
2022-09-20T00:43:36.179Z,58.25
2022-09-20T00:46:03.877Z,58.36
2022-09-20T00:48:32.830Z,58.33
2022-09-20T00:51:04.392Z,58.10
2022-09-20T00:53:35.251Z,57.65
2022-09-20T00:56:06.778Z,57.81
2022-09-20T00:58:39.825Z,58.39
2022-09-20T01:01:06.834Z,57.84
2022-09-20T01:03:36.921Z,58.41
2022-09-20T01:06:07.416Z,58.86
2022-09-20T01:08:35.193Z,58.89
2022-09-20T01:11:02.600Z,58.41
2022-09-20T01:13:29.353Z,58.49
2022-09-20T01:16:00.486Z,58.44
2022-09-20T01:18:29.697Z,58.37
2022-09-20T01:20:57.069Z,58.47
2022-09-20T01:23:35.137Z,57.65
2022-09-20T01:26:27.072Z,57.47
2022-09-20T01:29:04.702Z,57.74
2022-09-20T01:31:33.898Z,58.42
2022-09-20T01:34:04.209Z,59.01
2022-09-20T01:36:34.883Z,58.65
2022-09-20T01:39:08.610Z,58.48
2022-09-20T01:41:40.606Z,57.69
2022-09-20T01:44:18.461Z,58.01
2022-09-20T01:46:49.220Z,59.07
2022-09-20T01:49:26.675Z,59.18
2022-09-20T01:52:41.071Z,59.02
2022-09-20T01:55:39.729Z,58.97
2022-09-20T01:58:28.230Z,58.51
2022-09-20T02:01:23.224Z,58.48
2022-09-20T02:04:09.973Z,58.45
2022-09-20T02:06:53.892Z,58.16
2022-09-20T02:09:44.778Z,58.60
2022-09-20T02:12:35.006Z,59.23
2022-09-20T02:15:11.961Z,59.54
2022-09-20T02:17:54.186Z,59.35
2022-09-20T02:20:33.389Z,59.51
2022-09-20T02:23:21.653Z,59.01
2022-09-20T02:26:05.159Z,59.81
2022-09-20T02:28:56.101Z,59.84
2022-09-20T02:31:32.837Z,59.81
2022-09-20T02:34:18.957Z,60.58
2022-09-20T02:36:58.122Z,60.44
2022-09-20T02:39:35.342Z,59.96
2022-09-20T02:42:09.083Z,60.31
2022-09-20T02:45:01.037Z,60.05
2022-09-20T02:47:34.341Z,60.91
2022-09-20T02:50:31.440Z,60.88
2022-09-20T02:53:11.192Z,60.77
2022-09-20T02:55:43.532Z,60.32
2022-09-20T02:58:26.981Z,60.17
2022-09-20T03:01:00.551Z,60.16
2022-09-20T03:03:40.198Z,59.88
2022-09-20T03:06:17.861Z,60.45
2022-09-20T03:08:54.011Z,60.54
2022-09-20T03:11:30.767Z,60.84
2022-09-20T03:14:13.734Z,61.66
2022-09-20T03:16:52.589Z,61.35
2022-09-20T03:19:33.422Z,60.94
2022-09-20T03:22:11.040Z,60.07
2022-09-20T03:24:48.365Z,60.59
2022-09-20T03:27:24.517Z,61.02
2022-09-20T03:30:10.078Z,61.09
2022-09-20T03:32:53.082Z,61.71
2022-09-20T03:35:34.866Z,61.41
2022-09-20T03:38:17.041Z,61.64
2022-09-20T03:41:17.668Z,61.57
2022-09-20T03:44:09.739Z,60.91
2022-09-20T03:46:44.607Z,61.61
2022-09-20T03:50:02.042Z,61.61
2022-09-20T03:53:13.264Z,60.47
2022-09-20T03:56:14.168Z,60.55
2022-09-20T03:58:58.155Z,60.65
2022-09-20T04:01:42.540Z,60.47
2022-09-20T04:04:19.761Z,60.66
2022-09-20T04:07:12.938Z,60.61
2022-09-20T04:10:00.417Z,61.24
2022-09-20T04:12:35.475Z,61.11
2022-09-20T04:15:22.393Z,61.38
2022-09-20T04:17:57.108Z,60.64
2022-09-20T04:20:34.806Z,60.58
2022-09-20T04:23:13.698Z,60.93
2022-09-20T04:25:45.640Z,60.56
2022-09-20T04:28:17.542Z,60.58
2022-09-20T04:30:46.253Z,60.81
2022-09-20T04:33:18.396Z,61.35
2022-09-20T04:36:13.820Z,61.01
2022-09-20T04:38:40.876Z,61.04
2022-09-20T04:41:23.132Z,61.22
2022-09-20T04:44:21.846Z,61.42
2022-09-20T04:47:16.746Z,61.74
2022-09-20T04:50:11.741Z,61.53
2022-09-20T04:53:21.760Z,61.38
2022-09-20T04:55:56.123Z,61.50
2022-09-20T04:58:40.496Z,61.58
2022-09-20T05:01:55.564Z,61.61
2022-09-20T05:04:58.762Z,61.87
2022-09-20T05:08:04.128Z,62.40
2022-09-20T05:11:10.650Z,62.92
2022-09-20T05:14:02.402Z,62.85
2022-09-20T05:16:44.394Z,62.66
2022-09-20T05:19:28.339Z,62.20
2022-09-20T05:22:38.762Z,62.17
2022-09-20T05:25:30.369Z,61.79
2022-09-20T05:28:06.702Z,61.83
2022-09-20T05:30:39.748Z,61.84
2022-09-20T05:33:20.690Z,62.39
2022-09-20T05:35:59.957Z,62.39
2022-09-20T05:38:34.345Z,62.35
2022-09-20T05:41:10.877Z,62.77
2022-09-20T05:43:49.227Z,62.52
2022-09-20T05:46:32.403Z,61.79
2022-09-20T05:49:10.825Z,61.58
2022-09-20T05:51:52.013Z,61.96
2022-09-20T05:54:35.455Z,61.68
2022-09-20T05:57:19.315Z,61.91
2022-09-20T05:59:58.684Z,61.77
2022-09-20T06:02:38.162Z,62.11
2022-09-20T06:05:14.144Z,62.36
2022-09-20T06:07:50.445Z,62.16
2022-09-20T06:10:34.008Z,62.21
2022-09-20T06:13:08.784Z,62.46
2022-09-20T06:15:44.823Z,62.40
2022-09-20T06:18:21.860Z,61.74
2022-09-20T06:20:58.318Z,62.25
2022-09-20T06:23:25.285Z,62.11
2022-09-20T06:25:57.466Z,61.93
2022-09-20T06:28:28.471Z,62.31
2022-09-20T06:30:56.048Z,62.13
2022-09-20T06:33:25.875Z,62.10
2022-09-20T06:35:59.181Z,62.40
2022-09-20T06:39:02.714Z,62.47
2022-09-20T06:41:33.634Z,63.01
2022-09-20T06:44:06.575Z,62.66
2022-09-20T06:46:35.681Z,62.99
2022-09-20T06:49:04.551Z,63.09
2022-09-20T06:51:35.253Z,62.79
2022-09-20T06:54:02.738Z,62.97
2022-09-20T06:56:31.561Z,63.29
2022-09-20T06:58:58.309Z,63.04
2022-09-20T07:01:30.169Z,62.76
2022-09-20T07:03:57.809Z,63.17
2022-09-20T07:06:26.966Z,63.21
2022-09-20T07:08:53.807Z,62.82
2022-09-20T07:11:21.427Z,63.15
2022-09-20T07:13:51.483Z,63.25
2022-09-20T07:16:18.763Z,62.38
2022-09-20T07:18:46.245Z,62.96
2022-09-20T07:21:14.989Z,61.92
2022-09-20T07:23:45.792Z,61.79
2022-09-20T07:26:19.068Z,62.27
2022-09-20T07:28:46.345Z,61.82
2022-09-20T07:31:13.719Z,61.00
2022-09-20T07:33:40.539Z,60.22
2022-09-20T07:36:07.821Z,60.43
2022-09-20T07:38:34.486Z,59.76
2022-09-20T07:41:03.493Z,59.58
2022-09-20T07:43:31.167Z,59.07
2022-09-20T07:45:59.931Z,58.78
2022-09-20T07:48:29.158Z,58.41
2022-09-20T07:50:56.528Z,58.49
2022-09-20T07:53:23.774Z,58.51
2022-09-20T07:55:58.481Z,59.10
2022-09-20T07:58:26.738Z,58.25
2022-09-20T08:00:54.416Z,57.74
2022-09-20T08:03:22.912Z,57.76
2022-09-20T08:05:50.262Z,57.09
2022-09-20T08:08:17.899Z,56.72
2022-09-20T08:10:46.132Z,56.82
2022-09-20T08:16:06.202Z,55.47
2022-09-20T08:18:34.433Z,55.29
2022-09-20T08:21:06.420Z,55.12
2022-09-20T08:23:34.894Z,55.02
2022-09-20T08:26:02.684Z,54.90
2022-09-20T08:28:29.781Z,54.76
2022-09-20T08:31:01.504Z,55.01
2022-09-20T08:33:30.821Z,55.25
2022-09-20T08:35:58.080Z,54.89
2022-09-20T08:41:19.332Z,54.44
2022-09-20T08:43:52.053Z,53.47
2022-09-20T08:46:23.283Z,53.35
2022-09-20T08:48:52.793Z,53.32
2022-09-20T08:51:23.286Z,52.98
2022-09-20T08:53:52.362Z,52.89
2022-09-20T08:56:20.297Z,52.09
2022-09-20T08:58:47.300Z,51.13
2022-09-20T09:01:19.871Z,51.92
2022-09-20T09:03:47.715Z,51.32
2022-09-20T09:06:20.695Z,51.21
2022-09-20T09:08:51.009Z,50.99
2022-09-20T09:11:20.380Z,51.36
2022-09-20T09:13:53.618Z,50.70
2022-09-20T09:16:23.977Z,50.15
2022-09-20T09:18:55.161Z,49.68
2022-09-20T09:21:25.477Z,48.69
2022-09-20T09:23:58.423Z,48.63
2022-09-20T09:26:25.909Z,48.43
2022-09-20T09:29:10.128Z,48.67
2022-09-20T09:31:38.477Z,49.30
2022-09-20T09:34:05.695Z,48.92
2022-09-20T09:36:44.234Z,49.37
2022-09-20T09:39:19.380Z,49.56
2022-09-20T09:41:47.903Z,50.61
2022-09-20T09:44:27.914Z,51.00
2022-09-20T09:46:56.490Z,51.79
2022-09-20T09:49:25.337Z,52.18
2022-09-20T09:52:07.252Z,52.49
2022-09-20T09:54:37.232Z,52.62
2022-09-20T09:57:16.271Z,52.60
2022-09-20T10:00:04.756Z,52.90
2022-09-20T10:02:53.096Z,53.08
2022-09-20T10:05:24.767Z,53.13
2022-09-20T10:08:11.025Z,53.25
2022-09-20T10:10:48.400Z,53.39
2022-09-20T10:13:25.698Z,53.52
2022-09-20T10:15:59.209Z,52.31
2022-09-20T10:18:42.233Z,51.25
2022-09-20T10:21:18.402Z,50.99
2022-09-20T10:24:03.670Z,50.88
2022-09-20T10:26:46.958Z,49.99
2022-09-20T10:29:23.240Z,50.16
2022-09-20T10:32:00.361Z,50.83
2022-09-20T10:34:52.555Z,50.50
2022-09-20T10:37:32.179Z,50.19
2022-09-20T10:40:07.906Z,50.01
2022-09-20T10:42:59.738Z,50.14
2022-09-20T10:45:59.537Z,50.77
2022-09-20T10:48:25.366Z,50.55
2022-09-20T10:51:00.270Z,50.14
2022-09-20T10:53:39.125Z,49.16
2022-09-20T10:56:24.174Z,48.48
2022-09-20T10:59:23.242Z,49.24
2022-09-20T11:02:08.485Z,49.78
2022-09-20T11:05:06.142Z,49.95
2022-09-20T11:07:47.702Z,49.50
2022-09-20T11:10:20.887Z,50.32
2022-09-20T11:12:55.770Z,50.52
2022-09-20T11:15:26.546Z,49.74
2022-09-20T11:18:02.369Z,48.94
2022-09-20T11:20:33.278Z,49.59
2022-09-20T11:23:03.807Z,49.95
2022-09-20T11:25:36.434Z,50.31
2022-09-20T11:28:11.733Z,49.34
2022-09-20T11:30:44.962Z,49.91
2022-09-20T11:33:19.239Z,49.89
2022-09-20T11:35:50.955Z,49.97
2022-09-20T11:38:24.844Z,49.74
2022-09-20T11:40:57.634Z,49.62
2022-09-20T11:43:31.090Z,49.43
2022-09-20T11:46:03.014Z,49.79
2022-09-20T11:48:35.509Z,50.16
2022-09-20T11:51:24.246Z,49.94
2022-09-20T11:54:22.962Z,50.07
2022-09-20T11:56:51.421Z,49.96
2022-09-20T11:59:30.398Z,49.83
2022-09-20T12:02:00.566Z,50.35
2022-09-20T12:04:33.259Z,50.03
2022-09-20T12:07:09.433Z,49.61
2022-09-20T12:09:40.331Z,49.41
2022-09-20T12:12:27.130Z,49.62
2022-09-20T12:15:01.315Z,50.00
2022-09-20T12:18:09.435Z,49.60
2022-09-20T12:21:04.389Z,50.32
2022-09-20T12:24:01.197Z,50.22
2022-09-20T12:26:42.787Z,50.42
2022-09-20T12:29:51.229Z,50.16
2022-09-20T12:32:52.470Z,49.58
2022-09-20T12:35:56.262Z,49.50
2022-09-20T12:38:38.608Z,49.77
2022-09-20T12:41:09.667Z,50.04
2022-09-20T12:43:47.066Z,49.92
2022-09-20T12:46:27.105Z,49.05
2022-09-20T12:49:44.699Z,49.21
2022-09-20T12:52:45.462Z,48.58
2022-09-20T12:55:26.145Z,48.75
2022-09-20T12:57:54.676Z,48.64
2022-09-20T13:00:36.421Z,49.14
2022-09-20T13:03:12.735Z,49.00
2022-09-20T13:05:41.495Z,49.36
2022-09-20T13:08:18.544Z,48.83
2022-09-20T13:10:51.214Z,48.42
2022-09-20T13:13:29.120Z,48.30
2022-09-20T13:15:57.678Z,48.00
2022-09-20T13:18:27.856Z,48.31
2022-09-20T13:20:57.398Z,48.26
2022-09-20T13:23:32.476Z,48.60
2022-09-20T13:26:03.340Z,48.73
2022-09-20T13:28:35.333Z,48.24
2022-09-20T13:31:28.548Z,48.05
2022-09-20T13:33:55.619Z,47.78
2022-09-20T13:36:27.667Z,48.26
2022-09-20T13:38:58.489Z,47.95
2022-09-20T13:41:29.224Z,47.91
2022-09-20T13:43:56.491Z,48.16
2022-09-20T13:46:28.424Z,48.48
2022-09-20T13:49:09.398Z,48.68
2022-09-20T13:51:36.260Z,49.43
2022-09-20T13:57:01.716Z,48.72
2022-09-20T13:59:34.201Z,48.78
2022-09-20T14:02:03.636Z,48.56
2022-09-20T14:04:32.445Z,48.51
2022-09-20T14:07:00.745Z,48.29
2022-09-20T14:09:31.301Z,48.40
2022-09-20T14:12:01.437Z,48.30
2022-09-20T14:14:30.452Z,48.71
2022-09-20T14:16:58.519Z,48.45
2022-09-20T14:19:31.886Z,48.29
2022-09-20T14:21:59.737Z,48.74
2022-09-20T14:24:34.309Z,48.63
2022-09-20T14:27:14.529Z,47.96
2022-09-20T14:29:43.247Z,47.54
2022-09-20T14:32:24.671Z,47.90
2022-09-20T14:35:00.579Z,47.98
2022-09-20T14:37:30.726Z,47.85
2022-09-20T14:40:00.188Z,47.78
2022-09-20T14:42:33.906Z,47.39
2022-09-20T14:45:04.609Z,47.00
2022-09-20T14:47:38.404Z,47.04
2022-09-20T14:50:21.992Z,47.14
2022-09-20T14:53:04.013Z,47.12
2022-09-20T14:55:37.623Z,47.46
2022-09-20T14:58:10.842Z,46.87
2022-09-20T15:00:49.902Z,46.77
2022-09-20T15:03:22.988Z,46.95
2022-09-20T15:05:50.870Z,47.12
2022-09-20T15:08:19.667Z,47.57
2022-09-20T15:10:47.390Z,47.70
2022-09-20T15:13:16.678Z,48.21
2022-09-20T15:15:46.492Z,47.68
2022-09-20T15:18:21.843Z,47.56
2022-09-20T15:20:49.640Z,48.19
2022-09-20T15:23:16.780Z,48.58
2022-09-20T15:25:43.666Z,48.18
2022-09-20T15:28:18.219Z,48.23
2022-09-20T15:30:46.186Z,47.84
2022-09-20T15:33:14.033Z,48.05
2022-09-20T15:35:42.049Z,48.28
2022-09-20T15:38:11.704Z,47.97
2022-09-20T15:40:39.286Z,48.03
2022-09-20T15:43:07.455Z,48.20
2022-09-20T15:45:36.108Z,48.11
2022-09-20T15:48:03.037Z,48.58
2022-09-20T15:50:29.743Z,48.41
2022-09-20T15:52:59.974Z,48.41
2022-09-20T15:55:27.003Z,48.66
2022-09-20T15:57:53.947Z,49.00
2022-09-20T16:00:20.856Z,48.36
2022-09-20T16:02:50.219Z,48.10
2022-09-20T16:05:17.098Z,48.56
2022-09-20T16:07:44.078Z,48.42
2022-09-20T16:10:11.538Z,48.12
2022-09-20T16:12:38.984Z,48.56
2022-09-20T16:15:09.339Z,49.11
2022-09-20T16:17:54.647Z,48.78
2022-09-20T16:20:23.612Z,48.71
2022-09-20T16:22:51.982Z,49.04
2022-09-20T16:25:19.234Z,48.68
2022-09-20T16:27:45.934Z,48.78
2022-09-20T16:30:13.237Z,48.83
2022-09-20T16:32:41.152Z,49.04
2022-09-20T16:35:10.159Z,48.89
2022-09-20T16:37:39.552Z,48.98
2022-09-20T16:40:11.599Z,48.76
2022-09-20T16:42:38.991Z,48.93
2022-09-20T16:45:07.018Z,48.76
2022-09-20T16:47:33.987Z,49.02
2022-09-20T16:50:01.230Z,49.27
2022-09-20T16:52:28.186Z,49.09
2022-09-20T16:54:58.235Z,49.16
2022-09-20T16:57:25.800Z,49.17
2022-09-20T16:59:55.811Z,49.05
2022-09-20T17:02:22.534Z,49.12
2022-09-20T17:04:49.407Z,48.93
2022-09-20T17:07:16.190Z,49.12
2022-09-20T17:09:43.368Z,49.01
2022-09-20T17:12:12.544Z,48.79
2022-09-20T17:14:39.215Z,48.81
2022-09-20T17:17:08.036Z,49.31
2022-09-20T17:19:34.686Z,49.40
2022-09-20T17:22:01.912Z,49.45
2022-09-20T17:24:30.161Z,49.42
2022-09-20T17:26:56.917Z,49.27
2022-09-20T17:29:25.182Z,49.32
2022-09-20T17:31:57.123Z,49.31
2022-09-20T17:34:25.574Z,49.97
2022-09-20T17:36:54.064Z,49.84
2022-09-20T17:39:23.930Z,49.82
2022-09-20T17:41:51.180Z,49.67
2022-09-20T17:44:18.001Z,49.86
2022-09-20T17:46:49.658Z,50.02
2022-09-20T17:49:18.089Z,50.12
2022-09-20T17:51:47.484Z,49.78
2022-09-20T17:54:14.872Z,49.81
2022-09-20T17:56:43.437Z,49.94
2022-09-20T17:59:11.827Z,50.02
2022-09-20T18:01:40.269Z,50.44
2022-09-20T18:04:09.543Z,50.51
2022-09-20T18:06:42.421Z,50.38
2022-09-20T18:09:11.230Z,50.62
2022-09-20T18:11:39.754Z,51.04
2022-09-20T18:14:10.244Z,50.63
2022-09-20T18:16:40.456Z,50.93
2022-09-20T18:19:09.116Z,51.14
2022-09-20T18:21:37.657Z,51.32
2022-09-20T18:24:07.582Z,51.69
2022-09-20T18:26:35.625Z,51.69
2022-09-20T18:29:06.626Z,52.02
2022-09-20T18:31:37.825Z,52.14
2022-09-20T18:34:06.563Z,51.89
2022-09-20T18:36:36.236Z,52.28
2022-09-20T18:39:03.677Z,52.28
2022-09-20T18:41:34.581Z,52.01
2022-09-20T18:44:04.022Z,52.32
2022-09-20T18:46:31.290Z,52.13
2022-09-20T18:49:01.376Z,52.39
2022-09-20T18:51:34.774Z,52.32
2022-09-20T18:54:05.969Z,52.36
2022-09-20T18:56:37.274Z,52.65
2022-09-20T18:59:08.061Z,52.79
2022-09-20T19:01:49.137Z,52.72
2022-09-20T19:04:51.891Z,52.72
2022-09-20T19:07:29.091Z,52.67
2022-09-20T19:10:04.223Z,52.64
2022-09-20T19:12:39.189Z,52.93
2022-09-20T19:15:22.700Z,53.08
2022-09-20T19:18:07.591Z,52.79
2022-09-20T19:20:41.793Z,52.92
2022-09-20T19:23:26.618Z,52.58
2022-09-20T19:26:08.708Z,52.35
2022-09-20T19:28:36.320Z,52.14
2022-09-20T19:31:03.855Z,52.41
2022-09-20T19:33:31.180Z,52.77
2022-09-20T19:35:59.224Z,53.00
2022-09-20T19:38:37.259Z,53.20
2022-09-20T19:41:19.912Z,53.99
2022-09-20T19:44:05.784Z,54.18
2022-09-20T19:46:44.264Z,53.85
2022-09-20T19:49:15.267Z,53.73
2022-09-20T19:51:44.122Z,53.69
2022-09-20T19:54:15.222Z,54.10
2022-09-20T19:56:53.817Z,54.24
2022-09-20T19:59:22.258Z,54.62
2022-09-20T20:01:49.799Z,54.54
2022-09-20T20:04:17.400Z,54.38
2022-09-20T20:06:54.688Z,54.10
2022-09-20T20:09:32.137Z,54.12
2022-09-20T20:12:06.532Z,54.03
2022-09-20T20:14:40.754Z,54.40
2022-09-20T20:17:20.735Z,54.20
2022-09-20T20:19:56.659Z,54.54
2022-09-20T20:22:38.089Z,54.44
2022-09-20T20:25:18.073Z,54.35
2022-09-20T20:27:46.482Z,54.54
2022-09-20T20:30:13.618Z,54.98
2022-09-20T20:32:42.158Z,55.12
2022-09-20T20:35:12.518Z,55.13
2022-09-20T20:37:39.856Z,55.18
2022-09-20T20:40:12.120Z,55.21
2022-09-20T20:42:39.668Z,54.70
2022-09-20T20:45:09.775Z,54.85
2022-09-20T20:47:36.548Z,54.92
2022-09-20T20:50:03.469Z,54.99
2022-09-20T20:52:30.194Z,54.77
2022-09-20T20:54:57.465Z,54.67
2022-09-20T20:57:24.218Z,54.93
2022-09-20T20:59:50.944Z,55.44
2022-09-20T21:02:19.741Z,55.62
2022-09-20T21:04:47.059Z,55.77
2022-09-20T21:07:14.001Z,55.85
2022-09-20T21:09:40.872Z,55.73
2022-09-20T21:12:07.913Z,55.57
2022-09-20T21:14:35.097Z,55.54
2022-09-20T21:17:02.446Z,55.78
2022-09-20T21:19:30.665Z,55.53
2022-09-20T21:21:57.455Z,55.52
2022-09-20T21:24:24.334Z,55.41
2022-09-20T21:26:51.332Z,55.46
2022-09-20T21:29:18.091Z,55.44
2022-09-20T21:31:46.993Z,55.48
2022-09-20T21:34:15.518Z,55.38
2022-09-20T21:36:46.747Z,55.25
2022-09-20T21:39:13.750Z,55.07
2022-09-20T21:41:40.897Z,55.10
2022-09-20T21:44:10.684Z,55.32
2022-09-20T21:46:40.036Z,55.51
2022-09-20T21:49:08.613Z,55.39
2022-09-20T21:51:35.928Z,55.39
2022-09-20T21:54:04.934Z,55.56
2022-09-20T21:56:34.315Z,55.62
2022-09-20T21:59:03.723Z,55.74
2022-09-20T22:01:34.968Z,55.59
2022-09-20T22:04:05.165Z,55.75
2022-09-20T22:06:33.702Z,55.62
2022-09-20T22:09:02.085Z,55.30
2022-09-20T22:11:32.338Z,55.48
2022-09-20T22:13:59.207Z,55.55
2022-09-20T22:16:28.161Z,55.70
2022-09-20T22:18:56.303Z,55.70
2022-09-20T22:21:24.943Z,56.22
2022-09-20T22:23:54.342Z,55.64
2022-09-20T22:26:22.474Z,56.07
2022-09-20T22:28:51.016Z,56.21
2022-09-20T22:31:19.749Z,56.28
2022-09-20T22:33:48.356Z,56.33
2022-09-20T22:36:16.893Z,56.35
2022-09-20T22:38:44.713Z,56.25
2022-09-20T22:41:12.536Z,56.29
2022-09-20T22:43:39.982Z,56.19
2022-09-20T22:46:10.793Z,56.47
2022-09-20T22:48:38.600Z,56.59
2022-09-20T22:51:07.404Z,56.74
2022-09-20T22:53:35.252Z,56.56
2022-09-20T22:56:04.469Z,56.82
2022-09-20T22:58:31.915Z,56.70
2022-09-20T23:01:04.425Z,57.30
2022-09-20T23:03:32.801Z,57.03
2022-09-20T23:05:59.586Z,56.83
2022-09-20T23:08:26.565Z,56.90
2022-09-20T23:11:00.207Z,56.67
2022-09-20T23:13:26.877Z,57.15
2022-09-20T23:15:53.621Z,56.92
2022-09-20T23:18:20.251Z,57.50
2022-09-20T23:20:48.262Z,57.52
2022-09-20T23:23:23.530Z,57.76
2022-09-20T23:25:50.697Z,57.80
2022-09-20T23:28:18.250Z,57.39
2022-09-20T23:30:44.972Z,57.11
2022-09-20T23:33:11.683Z,56.89
2022-09-20T23:35:43.141Z,56.92
2022-09-20T23:38:11.253Z,56.67
2022-09-20T23:40:38.284Z,56.60
2022-09-20T23:43:05.272Z,57.17
2022-09-20T23:45:31.961Z,57.80
2022-09-20T23:47:58.695Z,57.81
2022-09-20T23:50:25.547Z,57.50
2022-09-20T23:52:52.382Z,57.35
2022-09-20T23:55:20.462Z,57.38
2022-09-20T23:57:47.131Z,57.46
